Time;durP1;ratioP1;P1;durP2;ratioP2;P2;SDS_P1;SDS_P2;PMS_P1;PMS_P2;Temp;Humidity;BMP_temperature;BMP_pressure;BME280_temperature;BME280_humidity;BME280_pressure;Samples;Min_cycle;Max_cycle;Signal;HPM_P1;HPM_P2
2022/05/02 00:02:26;;;;;;;;;;;6.10;99.90;;;;;;5035664;28;19935;-79
2022/05/02 00:04:52;;;;;;;;;;;6.20;99.90;;;;;;5046739;28;19932;-78
2022/05/02 00:07:19;;;;;;;;;;;6.20;99.90;;;;;;5031165;28;19933;-79
2022/05/02 00:09:45;;;;;;;;;;;6.20;99.90;;;;;;5047357;28;19928;-78
2022/05/02 00:12:12;;;;;;;;;;;6.20;99.90;;;;;;5031520;28;19925;-79
2022/05/02 00:14:39;;;;;;;;;;;6.10;99.90;;;;;;5026582;28;19925;-78
2022/05/02 00:17:05;;;;;;;;;;;6.20;99.90;;;;;;5031096;28;19929;-79
2022/05/02 00:19:32;;;;;;;;;;;6.10;99.90;;;;;;5030591;28;19932;-78
2022/05/02 00:21:58;;;;;;;;;;;6.00;99.90;;;;;;5033394;28;20269;-83
2022/05/02 00:24:25;;;;;;;;;;;6.00;99.90;;;;;;5034443;28;19924;-78
2022/05/02 00:26:51;;;;;;;;;;;6.00;99.90;;;;;;5029669;28;19929;-78
2022/05/02 00:29:18;;;;;;;;;;;5.90;99.90;;;;;;5032608;28;19996;-79
2022/05/02 00:31:45;;;;;;;;;;;5.90;99.90;;;;;;5028030;28;19932;-77
2022/05/02 00:34:12;;;;;;;;;;;5.80;99.90;;;;;;5031827;28;20011;-78
2022/05/02 00:36:38;;;;;;;;;;;5.90;99.90;;;;;;5045567;28;19924;-77
2022/05/02 00:39:05;;;;;;;;;;;5.90;99.90;;;;;;5023457;28;20295;-81
2022/05/02 00:41:31;;;;;;;;;;;5.80;99.90;;;;;;5025578;28;20279;-80
2022/05/02 00:43:58;;;;;;;;;;;5.80;99.90;;;;;;5034600;28;20403;-78
2022/05/02 00:46:25;;;;;;;;;;;5.80;99.90;;;;;;5043250;28;20375;-78
2022/05/02 00:48:52;;;;;;;;;;;5.80;99.90;;;;;;5051727;28;20380;-78
2022/05/02 00:51:18;;;;;;;;;;;5.80;99.90;;;;;;5033531;28;19925;-78
2022/05/02 00:53:45;;;;;;;;;;;5.80;99.90;;;;;;5051298;28;19924;-79
2022/05/02 00:56:11;;;;;;;;;;;5.80;99.90;;;;;;5043966;28;19932;-78
2022/05/02 00:58:38;;;;;;;;;;;5.80;99.90;;;;;;5032945;28;19929;-78
2022/05/02 01:01:04;;;;;;;;;;;5.70;99.90;;;;;;5019388;28;20430;-78
2022/05/02 01:03:31;;;;;;;;;;;5.80;99.90;;;;;;5045045;28;19929;-78
2022/05/02 01:08:42;;;;;;;;;;;5.80;99.90;;;;;;5028100;28;19925;-78
2022/05/02 01:11:08;;;;;;;;;;;5.70;99.90;;;;;;5024246;28;19931;-77
2022/05/02 01:13:35;;;;;;;;;;;5.70;99.90;;;;;;5053803;28;19933;-77
2022/05/02 01:16:01;;;;;;;;;;;5.70;99.90;;;;;;5024545;28;19925;-78
2022/05/02 01:18:28;;;;;;;;;;;5.70;99.90;;;;;;5055121;28;19925;-77
2022/05/02 01:20:54;;;;;;;;;;;5.60;99.90;;;;;;5036222;28;19925;-78
2022/05/02 01:23:21;;;;;;;;;;;5.60;99.90;;;;;;5053451;28;19928;-78
2022/05/02 01:25:47;;;;;;;;;;;5.60;99.90;;;;;;5042870;28;20287;-78
2022/05/02 01:28:14;;;;;;;;;;;5.60;99.90;;;;;;5043299;28;20311;-78
2022/05/02 01:30:40;;;;;;;;;;;5.60;99.90;;;;;;5052807;28;19947;-77
2022/05/02 01:33:07;;;;;;;;;;;5.60;99.90;;;;;;5037206;28;19924;-78
2022/05/02 01:35:33;;;;;;;;;;;5.60;99.90;;;;;;5038234;28;19928;-77
2022/05/02 01:38:00;;;;;;;;;;;5.60;99.90;;;;;;5037467;28;20276;-77
2022/05/02 01:40:27;;;;;;;;;;;5.60;99.90;;;;;;5035022;28;20396;-78
2022/05/02 01:42:53;;;;;;;;;;;5.70;99.90;;;;;;5021975;28;20388;-77
2022/05/02 01:45:20;;;;;;;;;;;5.60;99.90;;;;;;5019886;28;19929;-77
2022/05/02 01:47:46;;;;;;;;;;;5.70;99.90;;;;;;5054677;28;20368;-77
2022/05/02 01:50:13;;;;;;;;;;;5.60;99.90;;;;;;5054425;28;19925;-77
2022/05/02 01:52:39;;;;;;;;;;;5.60;99.90;;;;;;5054885;28;19932;-77
2022/05/02 01:55:06;;;;;;;;;;;5.60;99.90;;;;;;5044763;28;19932;-82
2022/05/02 01:57:32;;;;;;;;;;;5.60;99.90;;;;;;5041693;28;19924;-76
2022/05/02 01:59:59;;;;;;;;;;;5.50;99.90;;;;;;5030535;28;20388;-77
2022/05/02 02:02:25;;;;;;;;;;;5.50;99.90;;;;;;5035255;28;19925;-78
2022/05/02 02:07:36;;;;;;;;;;;5.40;99.90;;;;;;5041347;28;19929;-77
2022/05/02 02:10:03;;;;;;;;;;;5.40;99.90;;;;;;5043794;28;19929;-77
2022/05/02 02:12:29;;;;;;;;;;;5.30;99.90;;;;;;5017552;28;20137;-77
2022/05/02 02:14:56;;;;;;;;;;;5.30;99.90;;;;;;5047189;28;19925;-78
2022/05/02 02:17:22;;;;;;;;;;;5.20;99.90;;;;;;5049069;28;19925;-78
2022/05/02 02:19:49;;;;;;;;;;;5.20;99.90;;;;;;5047109;28;19939;-78
2022/05/02 02:22:18;;;;;;;;;;;5.20;99.90;;;;;;5033409;28;19925;-78
2022/05/02 02:24:45;;;;;;;;;;;5.20;99.90;;;;;;5032838;28;20409;-77
2022/05/02 02:27:11;;;;;;;;;;;5.30;99.90;;;;;;5052531;28;19925;-78
2022/05/02 02:29:38;;;;;;;;;;;5.20;99.90;;;;;;5026083;28;19932;-78
2022/05/02 02:32:04;;;;;;;;;;;5.20;99.90;;;;;;5025229;28;19929;-78
2022/05/02 02:34:31;;;;;;;;;;;5.20;99.90;;;;;;5045018;28;20345;-78
2022/05/02 02:36:57;;;;;;;;;;;5.20;99.90;;;;;;5020477;28;20283;-78
2022/05/02 02:39:24;;;;;;;;;;;5.30;99.90;;;;;;5035901;28;19936;-78
2022/05/02 02:41:50;;;;;;;;;;;5.20;99.90;;;;;;5054056;28;19925;-80
2022/05/02 02:44:17;;;;;;;;;;;5.30;99.90;;;;;;5031078;28;19983;-79
2022/05/02 02:46:43;;;;;;;;;;;5.20;99.90;;;;;;5024545;28;19925;-78
2022/05/02 02:49:10;;;;;;;;;;;5.30;99.90;;;;;;5031997;28;19992;-82
2022/05/02 02:51:37;;;;;;;;;;;5.30;99.90;;;;;;5036149;28;19940;-79
2022/05/02 02:54:03;;;;;;;;;;;5.30;99.90;;;;;;5061878;28;19925;-78
2022/05/02 02:56:30;;;;;;;;;;;5.30;99.90;;;;;;5034475;28;19931;-78
2022/05/02 02:58:56;;;;;;;;;;;5.30;99.90;;;;;;5036342;28;19931;-79
2022/05/02 03:01:23;;;;;;;;;;;5.20;99.90;;;;;;5028540;28;19925;-78
2022/05/02 03:03:49;;;;;;;;;;;5.10;99.90;;;;;;5032565;28;19926;-78
2022/05/02 03:06:15;;;;;;;;;;;5.10;99.90;;;;;;5038644;28;20368;-78
2022/05/02 03:08:41;;;;;;;;;;;5.10;99.90;;;;;;5041140;28;19935;-78
2022/05/02 03:11:08;;;;;;;;;;;5.20;99.90;;;;;;5053535;28;20007;-77
2022/05/02 03:13:35;;;;;;;;;;;5.00;99.90;;;;;;5031986;28;19964;-77
2022/05/02 03:16:02;;;;;;;;;;;5.10;99.90;;;;;;5043815;28;19968;-78
2022/05/02 03:18:28;;;;;;;;;;;5.00;99.90;;;;;;5049109;28;19925;-77
2022/05/02 03:20:55;;;;;;;;;;;5.00;99.90;;;;;;5049798;28;19936;-78
2022/05/02 03:23:21;;;;;;;;;;;5.00;99.90;;;;;;5030793;28;19932;-77
2022/05/02 03:25:48;;;;;;;;;;;5.00;99.90;;;;;;5035321;28;20368;-78
2022/05/02 03:28:14;;;;;;;;;;;4.90;99.90;;;;;;5035272;28;19954;-82
2022/05/02 03:30:41;;;;;;;;;;;5.00;99.90;;;;;;5028800;28;19925;-78
2022/05/02 03:33:07;;;;;;;;;;;4.90;99.90;;;;;;5047706;28;19925;-78
2022/05/02 03:35:34;;;;;;;;;;;4.90;99.90;;;;;;5033753;28;19925;-77
2022/05/02 03:38:01;;;;;;;;;;;4.90;99.90;;;;;;5034311;28;19928;-78
2022/05/02 03:40:27;;;;;;;;;;;4.90;99.90;;;;;;5021494;28;20081;-77
2022/05/02 03:42:54;;;;;;;;;;;4.90;99.90;;;;;;5028305;28;19983;-77
2022/05/02 03:45:21;;;;;;;;;;;4.90;99.90;;;;;;5031621;28;19929;-78
2022/05/02 03:47:47;;;;;;;;;;;4.90;99.90;;;;;;5035558;28;19925;-77
2022/05/02 03:50:14;;;;;;;;;;;4.80;99.90;;;;;;5043855;28;19925;-77
2022/05/02 03:52:40;;;;;;;;;;;4.90;99.90;;;;;;5026703;28;20368;-78
2022/05/02 03:55:07;;;;;;;;;;;4.90;99.90;;;;;;5031444;28;19975;-77
2022/05/02 03:57:33;;;;;;;;;;;4.80;99.90;;;;;;5051501;28;19925;-78
2022/05/02 04:00:00;;;;;;;;;;;4.80;99.90;;;;;;5051993;28;20342;-82
2022/05/02 04:02:26;;;;;;;;;;;4.70;99.90;;;;;;5052234;28;20034;-77
2022/05/02 04:04:53;;;;;;;;;;;4.80;99.90;;;;;;5049796;28;19925;-78
2022/05/02 04:07:19;;;;;;;;;;;4.70;99.90;;;;;;5022837;28;20023;-84
2022/05/02 04:09:46;;;;;;;;;;;4.70;99.90;;;;;;5046408;28;19952;-78
2022/05/02 04:12:12;;;;;;;;;;;4.70;99.90;;;;;;5034682;28;20299;-81
2022/05/02 04:14:39;;;;;;;;;;;4.70;99.90;;;;;;5028722;28;19924;-78
2022/05/02 04:17:05;;;;;;;;;;;4.70;99.90;;;;;;5051964;28;19936;-78
2022/05/02 04:19:32;;;;;;;;;;;4.80;99.90;;;;;;5023064;28;19933;-78
2022/05/02 04:21:58;;;;;;;;;;;4.90;99.90;;;;;;5030501;28;19966;-78
2022/05/02 04:24:25;;;;;;;;;;;5.00;99.90;;;;;;5025898;28;19929;-77
2022/05/02 04:26:51;;;;;;;;;;;5.10;99.90;;;;;;5030498;28;19932;-78
2022/05/02 04:29:18;;;;;;;;;;;5.00;99.90;;;;;;5037427;28;19932;-80
2022/05/02 04:31:45;;;;;;;;;;;5.20;99.90;;;;;;5037351;28;19958;-78
2022/05/02 04:34:11;;;;;;;;;;;5.40;99.90;;;;;;5037444;28;19925;-77
2022/05/02 04:36:38;;;;;;;;;;;5.60;99.90;;;;;;5026975;28;19929;-78
2022/05/02 04:39:04;;;;;;;;;;;5.70;99.90;;;;;;5047158;28;19925;-78
2022/05/02 04:41:31;;;;;;;;;;;5.70;99.90;;;;;;5029587;28;19932;-77
2022/05/02 04:43:57;;;;;;;;;;;5.80;99.90;;;;;;5035007;28;19925;-77
2022/05/02 04:46:24;;;;;;;;;;;5.90;99.90;;;;;;5046793;28;19924;-79
2022/05/02 04:48:50;;;;;;;;;;;5.90;99.90;;;;;;5033445;28;19925;-77
2022/05/02 04:51:17;;;;;;;;;;;6.00;99.90;;;;;;5046228;28;20373;-83
2022/05/02 04:53:43;;;;;;;;;;;6.10;99.90;;;;;;5033355;28;19936;-76
2022/05/02 04:56:10;;;;;;;;;;;6.20;99.90;;;;;;5051477;28;19925;-78
2022/05/02 04:58:36;;;;;;;;;;;6.40;99.90;;;;;;5050579;28;20376;-78
2022/05/02 05:01:03;;;;;;;;;;;6.50;99.90;;;;;;5038750;28;19925;-78
2022/05/02 05:03:30;;;;;;;;;;;6.70;99.90;;;;;;5057750;28;19929;-78
2022/05/02 05:05:56;;;;;;;;;;;6.70;99.90;;;;;;5033617;28;19929;-77
2022/05/02 05:08:23;;;;;;;;;;;6.70;99.90;;;;;;5054740;28;19979;-83
2022/05/02 05:10:50;;;;;;;;;;;6.80;99.90;;;;;;5028910;28;19925;-77
2022/05/02 05:13:16;;;;;;;;;;;6.90;99.90;;;;;;5038438;28;20012;-78
2022/05/02 05:18:32;;;;;;;;;;;7.20;99.90;;;;;;5021140;28;20401;-78
2022/05/02 05:20:59;;;;;;;;;;;7.40;99.90;;;;;;5042739;28;19933;-78
2022/05/02 05:23:25;;;;;;;;;;;7.50;99.90;;;;;;5039077;28;20297;-85
2022/05/02 05:25:52;;;;;;;;;;;7.70;99.90;;;;;;5029334;28;19925;-79
2022/05/02 05:28:18;;;;;;;;;;;7.90;99.90;;;;;;5022622;28;19924;-78
2022/05/02 05:30:46;;;;;;;;;;;8.10;99.90;;;;;;5032084;28;20110;-79
2022/05/02 05:33:13;;;;;;;;;;;8.30;99.90;;;;;;5038379;28;20280;-78
2022/05/02 05:35:39;;;;;;;;;;;8.40;99.90;;;;;;5026602;28;21014;-79
2022/05/02 05:38:06;;;;;;;;;;;8.40;99.90;;;;;;5053598;28;19933;-79
2022/05/02 05:40:33;;;;;;;;;;;8.70;99.90;;;;;;5046724;28;19932;-78
2022/05/02 05:42:59;;;;;;;;;;;8.70;99.90;;;;;;5047720;28;19932;-81
2022/05/02 05:45:26;;;;;;;;;;;8.80;99.90;;;;;;5032387;28;19928;-85
2022/05/02 05:47:52;;;;;;;;;;;9.00;99.90;;;;;;5052095;28;20367;-78
2022/05/02 05:50:20;;;;;;;;;;;9.10;99.90;;;;;;5040412;28;19924;-80
2022/05/02 05:52:46;;;;;;;;;;;9.20;99.90;;;;;;5033822;28;20443;-79
2022/05/02 05:55:13;;;;;;;;;;;9.40;99.90;;;;;;5035178;28;20361;-78
2022/05/02 05:57:39;;;;;;;;;;;9.50;99.90;;;;;;5045087;28;19936;-80
2022/05/02 06:00:06;;;;;;;;;;;9.60;99.90;;;;;;5034799;28;19981;-79
2022/05/02 06:02:32;;;;;;;;;;;9.80;99.90;;;;;;5039223;28;19947;-78
2022/05/02 06:04:59;;;;;;;;;;;9.80;99.90;;;;;;5046582;28;19924;-80
2022/05/02 06:07:25;;;;;;;;;;;10.00;99.90;;;;;;5038795;28;19931;-79
2022/05/02 06:09:52;;;;;;;;;;;10.20;99.90;;;;;;5032215;28;19925;-78
2022/05/02 06:12:19;;;;;;;;;;;10.30;99.90;;;;;;5058521;28;19932;-79
2022/05/02 06:20:10;;;;;;;;;;;10.80;99.90;;;;;;5058758;28;19925;-79
2022/05/02 06:22:36;;;;;;;;;;;10.90;99.90;;;;;;5058693;28;19928;-79
2022/05/02 06:25:03;;;;;;;;;;;11.00;99.90;;;;;;5041340;28;19944;-79
2022/05/02 06:27:30;;;;;;;;;;;10.90;99.90;;;;;;5058960;28;19931;-85
2022/05/02 06:29:56;;;;;;;;;;;11.20;99.90;;;;;;5043399;28;20386;-80
2022/05/02 06:32:23;;;;;;;;;;;11.20;99.90;;;;;;5040181;28;19925;-79
2022/05/02 06:34:49;;;;;;;;;;;11.40;99.90;;;;;;5050075;28;19932;-78
2022/05/02 06:37:16;;;;;;;;;;;11.30;99.90;;;;;;5059953;28;19936;-78
2022/05/02 06:39:42;;;;;;;;;;;11.50;99.90;;;;;;5051321;28;19932;-80
2022/05/02 06:42:09;;;;;;;;;;;11.60;99.90;;;;;;5035291;28;19931;-79
2022/05/02 06:44:35;;;;;;;;;;;11.70;99.90;;;;;;5057602;28;19925;-79
2022/05/02 06:47:02;;;;;;;;;;;11.90;99.90;;;;;;5044621;28;19925;-79
2022/05/02 06:49:28;;;;;;;;;;;12.00;99.90;;;;;;5034779;28;19925;-79
2022/05/02 06:51:55;;;;;;;;;;;11.90;99.90;;;;;;5041865;28;20280;-77
2022/05/02 06:54:21;;;;;;;;;;;11.90;99.90;;;;;;5035909;28;20360;-78
2022/05/02 06:56:48;;;;;;;;;;;12.10;99.90;;;;;;5039320;28;19925;-79
2022/05/02 06:59:15;;;;;;;;;;;12.20;99.90;;;;;;5050513;28;20016;-79
2022/05/02 07:01:41;;;;;;;;;;;12.30;99.90;;;;;;5043052;28;19928;-81
2022/05/02 07:04:08;;;;;;;;;;;12.30;99.90;;;;;;5058576;28;19977;-79
2022/05/02 07:06:34;;;;;;;;;;;12.40;99.90;;;;;;5033221;28;20295;-87
2022/05/02 07:09:01;;;;;;;;;;;12.50;99.90;;;;;;5037533;28;19928;-80
2022/05/02 07:11:28;;;;;;;;;;;12.60;99.90;;;;;;5033002;28;19925;-79
2022/05/02 07:13:54;;;;;;;;;;;12.70;99.90;;;;;;5035841;28;20076;-78
2022/05/02 07:16:21;;;;;;;;;;;12.70;99.90;;;;;;5058083;28;20364;-80
2022/05/02 07:18:47;;;;;;;;;;;12.80;99.90;;;;;;5051122;28;19933;-80
2022/05/02 07:21:15;;;;;;;;;;;12.80;99.90;;;;;;5047260;28;19929;-81
2022/05/02 07:23:41;;;;;;;;;;;13.10;99.90;;;;;;5030816;28;20343;-80
2022/05/02 07:26:08;;;;;;;;;;;13.10;99.90;;;;;;5023108;28;20015;-81
2022/05/02 07:28:34;;;;;;;;;;;13.20;99.90;;;;;;5054352;28;20593;-80
2022/05/02 07:31:01;;;;;;;;;;;13.20;99.90;;;;;;5044571;28;19952;-80
2022/05/02 07:33:27;;;;;;;;;;;13.20;99.90;;;;;;5029510;28;19929;-80
2022/05/02 07:35:56;;;;;;;;;;;13.40;99.90;;;;;;5031701;28;19928;-79
2022/05/02 07:38:22;;;;;;;;;;;13.50;99.90;;;;;;5048761;28;19968;-83
2022/05/02 07:43:29;;;;;;;;;;;13.70;99.90;;;;;;5051806;28;19925;-81
2022/05/02 07:45:56;;;;;;;;;;;13.90;99.90;;;;;;5030707;28;20035;-81
2022/05/02 07:48:22;;;;;;;;;;;13.80;99.90;;;;;;5045364;28;19951;-82
2022/05/02 07:50:49;;;;;;;;;;;14.00;99.90;;;;;;5021967;28;20304;-80
2022/05/02 07:53:15;;;;;;;;;;;13.90;96.70;;;;;;5030341;28;19932;-80
2022/05/02 07:55:42;;;;;;;;;;;14.00;98.10;;;;;;5024980;28;19925;-81
2022/05/02 07:58:08;;;;;;;;;;;14.20;99.90;;;;;;5019108;28;19971;-80
2022/05/02 08:00:35;;;;;;;;;;;14.30;98.80;;;;;;5042799;28;19925;-83
2022/05/02 08:03:02;;;;;;;;;;;14.30;99.50;;;;;;5047251;28;19935;-80
2022/05/02 08:05:29;;;;;;;;;;;14.30;97.40;;;;;;5022809;28;19928;-81
2022/05/02 08:07:55;;;;;;;;;;;14.20;98.50;;;;;;5052381;28;19924;-80
2022/05/02 08:10:22;;;;;;;;;;;14.50;98.20;;;;;;5029229;28;19926;-79
2022/05/02 08:12:48;;;;;;;;;;;14.50;98.30;;;;;;5030532;28;19932;-80
2022/05/02 08:15:15;;;;;;;;;;;14.60;97.10;;;;;;5051549;28;19932;-79
2022/05/02 08:17:41;;;;;;;;;;;14.50;97.10;;;;;;5021702;28;19925;-84
2022/05/02 08:20:08;;;;;;;;;;;14.60;97.90;;;;;;5031343;28;19925;-80
2022/05/02 08:28:03;;;;;;;;;;;14.90;96.50;;;;;;5023466;28;21034;-82
2022/05/02 08:30:29;;;;;;;;;;;15.00;94.80;;;;;;5043044;28;19925;-80
2022/05/02 08:32:56;;;;;;;;;;;15.00;95.90;;;;;;5047145;28;19933;-85
2022/05/02 08:35:23;;;;;;;;;;;14.80;94.90;;;;;;5025860;28;19924;-79
2022/05/02 08:37:49;;;;;;;;;;;15.00;95.60;;;;;;5050924;28;19932;-79
2022/05/02 08:40:16;;;;;;;;;;;14.80;96.40;;;;;;5049389;28;19932;-80
2022/05/02 08:42:42;;;;;;;;;;;14.80;94.90;;;;;;5035584;28;19933;-89
2022/05/02 08:45:09;;;;;;;;;;;15.10;95.60;;;;;;5034718;28;19931;-80
2022/05/02 08:47:36;;;;;;;;;;;15.20;94.70;;;;;;5027713;28;19949;-82
2022/05/02 08:50:02;;;;;;;;;;;15.30;94.20;;;;;;5037800;28;20124;-80
2022/05/02 08:52:29;;;;;;;;;;;15.50;93.90;;;;;;5037617;28;19925;-80
2022/05/02 08:54:55;;;;;;;;;;;15.70;95.10;;;;;;5048900;28;19925;-81
2022/05/02 08:57:22;;;;;;;;;;;15.90;93.60;;;;;;5054357;28;19925;-81
2022/05/02 08:59:48;;;;;;;;;;;15.90;93.50;;;;;;5033480;28;19932;-80
2022/05/02 09:02:15;;;;;;;;;;;16.00;93.30;;;;;;5048819;28;19925;-79
2022/05/02 09:04:41;;;;;;;;;;;16.00;92.70;;;;;;5029416;28;20029;-80
2022/05/02 09:07:08;;;;;;;;;;;16.00;92.30;;;;;;5028657;28;19936;-81
2022/05/02 09:09:34;;;;;;;;;;;16.20;92.30;;;;;;5054861;28;19924;-80
2022/05/02 09:12:01;;;;;;;;;;;16.30;92.00;;;;;;5037431;28;19925;-84
2022/05/02 09:14:27;;;;;;;;;;;16.30;91.80;;;;;;5051223;28;19928;-79
2022/05/02 09:16:54;;;;;;;;;;;16.20;90.50;;;;;;5025524;28;19925;-82
2022/05/02 09:19:21;;;;;;;;;;;16.40;92.90;;;;;;5022789;28;19983;-83
2022/05/02 09:21:47;;;;;;;;;;;16.70;90.80;;;;;;5040865;28;20380;-84
2022/05/02 09:24:14;;;;;;;;;;;17.00;87.20;;;;;;5048527;28;19932;-80
2022/05/02 09:26:41;;;;;;;;;;;16.80;88.60;;;;;;5032896;28;19924;-78
2022/05/02 09:29:07;;;;;;;;;;;17.00;89.20;;;;;;5039351;28;20032;-79
2022/05/02 09:31:34;;;;;;;;;;;16.90;86.50;;;;;;5044429;28;19933;-80
2022/05/02 09:34:00;;;;;;;;;;;16.70;84.70;;;;;;5042137;28;19925;-79
2022/05/02 09:36:27;;;;;;;;;;;16.90;85.80;;;;;;5029437;28;19925;-79
2022/05/02 09:38:54;;;;;;;;;;;16.80;85.30;;;;;;5036436;28;19932;-81
2022/05/02 09:41:20;;;;;;;;;;;16.70;83.70;;;;;;5049304;28;19929;-79
2022/05/02 09:51:59;;;;;;;;;;;16.80;82.00;;;;;;5030668;28;19926;-80
2022/05/02 09:57:06;;;;;;;;;;;16.20;80.80;;;;;;5060118;28;19931;-80
2022/05/02 09:59:33;;;;;;;;;;;16.20;83.40;;;;;;5037864;28;19957;-80
2022/05/02 10:02:00;;;;;;;;;;;16.20;82.10;;;;;;5061890;28;19924;-80
2022/05/02 10:04:26;;;;;;;;;;;16.00;81.90;;;;;;5062753;28;20032;-79
2022/05/02 10:06:53;;;;;;;;;;;15.80;84.00;;;;;;5031711;28;20272;-80
2022/05/02 10:09:19;;;;;;;;;;;15.50;82.30;;;;;;5033606;28;20257;-80
2022/05/02 10:11:46;;;;;;;;;;;15.50;84.40;;;;;;5038503;28;19947;-79
2022/05/02 10:14:13;;;;;;;;;;;15.20;83.00;;;;;;5047752;28;20965;-79
2022/05/02 10:16:39;;;;;;;;;;;15.10;85.80;;;;;;5043962;28;20371;-80
2022/05/02 10:19:07;;;;;;;;;;;15.20;87.10;;;;;;5046965;28;19937;-80
2022/05/02 10:21:33;;;;;;;;;;;15.40;84.10;;;;;;5053900;28;20000;-79
2022/05/02 10:24:00;;;;;;;;;;;15.20;83.40;;;;;;5040378;28;19925;-80
2022/05/02 10:26:27;;;;;;;;;;;15.10;84.20;;;;;;5062461;28;20398;-80
2022/05/02 10:28:53;;;;;;;;;;;15.10;86.50;;;;;;5034692;28;19951;-85
2022/05/02 10:31:20;;;;;;;;;;;15.30;87.10;;;;;;5051470;28;19935;-80
2022/05/02 10:33:47;;;;;;;;;;;15.30;87.40;;;;;;5048379;28;20387;-79
2022/05/02 10:36:14;;;;;;;;;;;15.50;87.40;;;;;;5055192;28;20371;-80
2022/05/02 10:38:40;;;;;;;;;;;15.90;86.70;;;;;;5035466;28;19925;-82
2022/05/02 10:41:07;;;;;;;;;;;16.20;83.10;;;;;;5026453;28;19935;-80
2022/05/02 10:43:33;;;;;;;;;;;16.10;82.60;;;;;;5053057;28;19932;-83
2022/05/02 10:46:00;;;;;;;;;;;16.20;80.80;;;;;;5041512;28;19947;-81
2022/05/02 10:48:26;;;;;;;;;;;16.30;81.60;;;;;;5050040;28;20388;-81
2022/05/02 10:50:53;;;;;;;;;;;16.60;80.70;;;;;;5049704;28;19924;-80
2022/05/02 10:53:19;;;;;;;;;;;16.70;78.30;;;;;;5048472;28;19931;-80
2022/05/02 10:55:46;;;;;;;;;;;16.60;83.30;;;;;;5051021;28;19931;-78
2022/05/02 10:58:12;;;;;;;;;;;16.30;79.40;;;;;;5034946;28;19925;-80
2022/05/02 11:00:39;;;;;;;;;;;16.50;79.60;;;;;;5057611;28;20028;-79
2022/05/02 11:03:05;;;;;;;;;;;16.80;80.20;;;;;;5027440;28;19929;-80
2022/05/02 11:05:32;;;;;;;;;;;16.90;78.00;;;;;;5032855;28;19947;-80
2022/05/02 11:07:59;;;;;;;;;;;16.90;76.80;;;;;;5054498;28;19939;-81
2022/05/02 11:10:26;;;;;;;;;;;16.70;80.40;;;;;;5030021;28;19932;-82
2022/05/02 11:12:52;;;;;;;;;;;16.70;76.60;;;;;;5054293;28;19924;-80
2022/05/02 11:15:19;;;;;;;;;;;16.60;77.50;;;;;;5040354;28;19976;-80
2022/05/02 11:17:45;;;;;;;;;;;16.70;79.40;;;;;;5040195;28;19933;-81
2022/05/02 11:22:56;;;;;;;;;;;17.00;78.10;;;;;;5045941;28;19925;-80
2022/05/02 11:25:23;;;;;;;;;;;17.10;73.70;;;;;;5034487;28;19929;-81
2022/05/02 11:27:49;;;;;;;;;;;17.10;76.40;;;;;;5040117;28;19932;-80
2022/05/02 11:30:16;;;;;;;;;;;17.20;72.90;;;;;;5028225;28;19932;-81
2022/05/02 11:32:42;;;;;;;;;;;17.50;73.30;;;;;;5030720;28;20087;-80
2022/05/02 11:35:09;;;;;;;;;;;17.50;72.50;;;;;;5029076;28;19943;-81
2022/05/02 11:37:35;;;;;;;;;;;17.50;69.70;;;;;;5034891;28;20368;-80
2022/05/02 11:40:02;;;;;;;;;;;17.20;67.10;;;;;;5034455;28;19932;-81
2022/05/02 11:42:29;;;;;;;;;;;17.40;72.80;;;;;;5034938;28;19936;-81
2022/05/02 11:44:55;;;;;;;;;;;17.40;69.90;;;;;;5034204;28;19925;-82
2022/05/02 11:47:22;;;;;;;;;;;17.70;74.40;;;;;;5049071;28;19928;-82
2022/05/02 11:49:48;;;;;;;;;;;17.80;75.80;;;;;;5026254;28;19928;-81
2022/05/02 11:52:15;;;;;;;;;;;17.70;73.80;;;;;;5032144;28;19928;-81
2022/05/02 11:54:42;;;;;;;;;;;17.80;69.90;;;;;;5029634;28;19929;-81
2022/05/02 11:57:09;;;;;;;;;;;17.90;70.40;;;;;;5034144;28;20407;-81
2022/05/02 11:59:35;;;;;;;;;;;18.10;69.40;;;;;;5045997;28;19925;-81
2022/05/02 12:02:02;;;;;;;;;;;18.10;69.20;;;;;;5029658;28;19924;-87
2022/05/02 12:04:28;;;;;;;;;;;18.00;66.70;;;;;;5030604;28;19928;-82
2022/05/02 12:06:55;;;;;;;;;;;17.90;66.80;;;;;;5031391;28;19947;-83
2022/05/02 12:09:21;;;;;;;;;;;18.00;68.20;;;;;;5033616;28;20388;-82
2022/05/02 12:11:48;;;;;;;;;;;17.80;70.40;;;;;;5034026;28;20379;-83
2022/05/02 12:14:15;;;;;;;;;;;17.90;66.30;;;;;;5051519;28;19943;-81
2022/05/02 12:16:41;;;;;;;;;;;17.80;67.40;;;;;;5013617;28;19933;-83
2022/05/02 12:19:10;;;;;;;;;;;17.70;67.00;;;;;;5008658;28;20202;-82
2022/05/02 12:21:36;;;;;;;;;;;17.80;66.10;;;;;;5001633;28;19932;-82
2022/05/02 12:24:03;;;;;;;;;;;17.90;64.90;;;;;;5007246;28;20365;-88
2022/05/02 12:26:30;;;;;;;;;;;17.60;65.80;;;;;;5004428;28;20369;-82
2022/05/02 12:28:58;;;;;;;;;;;17.60;65.40;;;;;;5002978;28;20471;-83
2022/05/02 12:31:26;;;;;;;;;;;17.50;65.00;;;;;;5002806;28;20032;-82
2022/05/02 12:33:52;;;;;;;;;;;17.60;65.90;;;;;;5020565;28;19926;-85
2022/05/02 12:36:19;;;;;;;;;;;17.50;65.70;;;;;;5009681;28;19980;-82
2022/05/02 12:38:46;;;;;;;;;;;17.50;65.40;;;;;;5011087;28;20432;-82
2022/05/02 12:41:12;;;;;;;;;;;17.80;64.60;;;;;;5003137;28;19925;-83
2022/05/02 12:43:39;;;;;;;;;;;17.40;65.40;;;;;;5007989;28;20300;-83
2022/05/02 12:46:06;;;;;;;;;;;17.40;65.90;;;;;;4999589;28;19926;-87
2022/05/02 12:48:32;;;;;;;;;;;17.70;65.10;;;;;;5013316;28;20367;-84
2022/05/02 12:50:59;;;;;;;;;;;17.50;66.30;;;;;;5011016;28;19929;-83
2022/05/02 12:56:10;;;;;;;;;;;17.90;64.60;;;;;;5005259;28;19969;-82
2022/05/02 13:01:21;;;;;;;;;;;18.00;65.70;;;;;;5004817;28;20381;-83
2022/05/02 13:03:48;;;;;;;;;;;18.20;63.30;;;;;;5010719;28;19933;-82
2022/05/02 13:06:14;;;;;;;;;;;18.20;60.70;;;;;;5009980;28;20353;-87
2022/05/02 13:08:42;;;;;;;;;;;17.90;61.80;;;;;;5010651;28;20262;-82
2022/05/02 13:11:08;;;;;;;;;;;17.90;62.60;;;;;;5014531;28;19926;-87
2022/05/02 13:13:35;;;;;;;;;;;17.90;62.40;;;;;;5015044;28;19925;-83
2022/05/02 13:16:02;;;;;;;;;;;18.10;61.50;;;;;;5014547;28;20028;-79
2022/05/02 13:18:28;;;;;;;;;;;18.20;63.30;;;;;;5053113;28;19921;-81
2022/05/02 13:20:55;;;;;;;;;;;18.20;60.00;;;;;;5028618;28;19975;-80
2022/05/02 13:23:22;;;;;;;;;;;18.00;59.90;;;;;;5020772;28;19925;-83
2022/05/02 13:25:48;;;;;;;;;;;18.00;60.70;;;;;;5032287;28;19925;-84
2022/05/02 13:28:15;;;;;;;;;;;18.20;59.10;;;;;;5035032;28;19932;-83
2022/05/02 13:30:41;;;;;;;;;;;18.00;59.70;;;;;;5038771;28;19943;-83
2022/05/02 13:33:08;;;;;;;;;;;17.90;59.70;;;;;;5042279;28;19925;-87
2022/05/02 13:35:35;;;;;;;;;;;18.00;60.30;;;;;;5023872;28;19931;-84
2022/05/02 13:38:01;;;;;;;;;;;18.00;60.20;;;;;;5022094;28;20307;-83
2022/05/02 13:40:28;;;;;;;;;;;18.10;59.40;;;;;;5032608;28;19929;-84
2022/05/02 13:42:57;;;;;;;;;;;18.10;58.70;;;;;;5042832;28;19931;-82
2022/05/02 13:45:24;;;;;;;;;;;18.10;61.00;;;;;;5041665;28;19924;-83
2022/05/02 13:47:50;;;;;;;;;;;18.30;58.80;;;;;;5066088;28;19928;-83
2022/05/02 13:50:17;;;;;;;;;;;18.00;60.60;;;;;;5043525;28;20330;-84
2022/05/02 13:52:45;;;;;;;;;;;18.10;60.60;;;;;;5043287;28;20282;-83
2022/05/02 13:55:13;;;;;;;;;;;18.10;58.30;;;;;;5039483;28;20007;-87
2022/05/02 13:57:44;;;;;;;;;;;17.90;60.60;;;;;;5041033;28;19939;-82
2022/05/02 14:02:56;;;;;;;;;;;17.90;58.90;;;;;;5030077;28;20408;-83
2022/05/02 14:05:30;;;;;;;;;;;18.00;58.30;;;;;;5036818;28;19924;-80
2022/05/02 14:07:59;;;;;;;;;;;17.90;58.10;;;;;;5041337;28;19931;-81
2022/05/02 14:10:26;;;;;;;;;;;17.50;60.10;;;;;;5061517;28;19929;-81
2022/05/02 14:12:53;;;;;;;;;;;17.70;59.90;;;;;;5034625;28;19967;-87
2022/05/02 14:15:19;;;;;;;;;;;18.00;57.60;;;;;;5032705;28;19928;-81
2022/05/02 14:17:46;;;;;;;;;;;17.60;59.20;;;;;;5031865;28;19925;-83
2022/05/02 14:20:13;;;;;;;;;;;18.00;61.60;;;;;;5031224;28;19940;-85
2022/05/02 14:22:40;;;;;;;;;;;18.00;61.40;;;;;;5048492;28;20315;-78
2022/05/02 14:25:06;;;;;;;;;;;18.00;61.60;;;;;;5050664;28;19928;-78
2022/05/02 14:27:33;;;;;;;;;;;18.10;62.20;;;;;;5049113;28;19936;-81
2022/05/02 14:30:01;;;;;;;;;;;18.00;61.50;;;;;;5045853;28;19933;-77
2022/05/02 14:32:28;;;;;;;;;;;17.90;61.70;;;;;;5032310;28;19925;-77
2022/05/02 14:34:54;;;;;;;;;;;17.80;62.50;;;;;;5047967;28;19925;-82
2022/05/02 14:37:22;;;;;;;;;;;17.80;62.20;;;;;;5036313;28;19936;-82
2022/05/02 14:39:49;;;;;;;;;;;17.60;63.20;;;;;;5052561;28;20008;-82
2022/05/02 14:42:15;;;;;;;;;;;17.50;64.50;;;;;;5040910;28;19929;-88
2022/05/02 14:44:42;;;;;;;;;;;17.50;65.70;;;;;;5050440;28;19925;-80
2022/05/02 14:47:08;;;;;;;;;;;17.50;65.00;;;;;;5048227;28;19955;-83
2022/05/02 14:49:36;;;;;;;;;;;17.50;66.30;;;;;;5049713;28;19932;-83
2022/05/02 14:52:06;;;;;;;;;;;17.50;65.40;;;;;;5045435;28;19931;-82
2022/05/02 14:54:32;;;;;;;;;;;17.50;66.50;;;;;;5043923;28;19929;-83
2022/05/02 14:56:59;;;;;;;;;;;17.50;64.60;;;;;;5048738;28;19931;-77
2022/05/02 14:59:25;;;;;;;;;;;17.50;65.20;;;;;;5043354;28;20372;-77
2022/05/02 15:01:52;;;;;;;;;;;17.40;65.00;;;;;;5049857;28;19939;-78
2022/05/02 15:04:19;;;;;;;;;;;17.30;66.20;;;;;;5052760;28;19924;-84